Time;durP1;ratioP1;P1;durP2;ratioP2;P2;SDS_P1;SDS_P2;PMS_P1;PMS_P2;Temp;Humidity;BMP_temperature;BMP_pressure;BME280_temperature;BME280_humidity;BME280_pressure;Samples;Min_cycle;Max_cycle;Signal;HPM_P1;HPM_P2
2024/04/21 00:00:07;;;;;;;2.30;1.27;;;7.10;99.90;;;;;;5379811;26;20775;-70
2024/04/21 00:02:33;;;;;;;7.17;1.50;;;7.10;99.90;;;;;;5348413;26;20675;-70
2024/04/21 00:04:59;;;;;;;7.50;1.80;;;7.10;99.90;;;;;;5379885;26;20452;-70
2024/04/21 00:07:24;;;;;;;5.93;1.90;;;7.10;99.90;;;;;;5379330;26;21091;-70
2024/04/21 00:09:50;;;;;;;9.97;2.20;;;7.00;99.90;;;;;;5348323;26;20217;-70
2024/04/21 00:12:15;;;;;;;3.63;1.23;;;7.10;99.90;;;;;;5379277;26;20265;-69
2024/04/21 00:14:41;;;;;;;8.53;1.87;;;7.10;99.90;;;;;;5380116;26;20214;-70
2024/04/21 00:17:07;;;;;;;3.17;1.50;;;7.10;99.90;;;;;;5382963;26;20209;-70
2024/04/21 00:19:32;;;;;;;8.40;2.27;;;7.00;99.90;;;;;;5382866;26;20217;-70
2024/04/21 00:21:58;;;;;;;6.50;2.20;;;7.00;99.90;;;;;;5382476;26;20260;-70
2024/04/21 00:24:28;;;;;;;4.10;1.60;;;7.00;99.90;;;;;;5383060;26;20221;-70
2024/04/21 00:26:54;;;;;;;9.47;2.07;;;7.00;99.90;;;;;;5383369;26;20213;-70
2024/04/21 00:29:19;;;;;;;6.40;1.50;;;7.00;99.90;;;;;;5382943;26;20605;-69
2024/04/21 00:31:45;;;;;;;4.43;1.40;;;7.00;99.90;;;;;;5382231;26;20459;-70
2024/04/21 00:34:10;;;;;;;4.60;1.50;;;7.00;99.90;;;;;;5374259;26;20559;-70
2024/04/21 00:36:36;;;;;;;6.33;1.93;;;6.90;99.90;;;;;;5382519;26;20230;-69
2024/04/21 00:39:02;;;;;;;10.43;2.10;;;7.00;99.90;;;;;;5351966;26;20229;-70
2024/04/21 00:41:28;;;;;;;3.93;1.13;;;6.90;99.90;;;;;;5382336;26;20222;-69
2024/04/21 00:43:53;;;;;;;4.93;1.37;;;6.90;99.90;;;;;;5382397;26;20499;-70
2024/04/21 00:46:19;;;;;;;2.57;1.20;;;6.90;99.90;;;;;;5351444;26;20692;-70
2024/04/21 00:48:45;;;;;;;3.50;1.43;;;6.80;99.90;;;;;;5382804;26;20331;-70
2024/04/21 00:51:11;;;;;;;3.43;1.03;;;6.80;99.90;;;;;;5382139;26;20890;-70
2024/04/21 00:53:36;;;;;;;5.70;1.77;;;6.80;99.90;;;;;;5382423;26;20626;-70
2024/04/21 00:56:04;;;;;;;2.13;1.63;;;6.80;99.90;;;;;;5382636;26;20459;-70
2024/04/21 00:58:30;;;;;;;10.93;1.30;;;6.80;99.90;;;;;;5382471;26;20217;-69
2024/04/21 01:00:56;;;;;;;7.63;1.57;;;6.70;99.90;;;;;;5381969;26;20451;-70
2024/04/21 01:03:22;;;;;;;3.87;1.33;;;6.70;99.90;;;;;;5382402;26;20442;-70
2024/04/21 01:05:47;;;;;;;1.20;0.90;;;6.70;99.90;;;;;;5351484;26;20911;-71
2024/04/21 01:08:13;;;;;;;10.33;2.27;;;6.70;99.90;;;;;;5382270;26;20230;-69
2024/04/21 01:10:38;;;;;;;2.20;1.70;;;6.70;99.90;;;;;;5381488;26;20222;-70
2024/04/21 01:13:11;;;;;;;19.07;2.70;;;6.60;99.90;;;;;;5381886;26;20252;-70
2024/04/21 01:15:37;;;;;;;7.17;1.20;;;6.60;99.90;;;;;;5381779;26;20260;-70
2024/04/21 01:18:04;;;;;;;1.70;0.97;;;6.60;99.90;;;;;;5382438;26;20447;-70
2024/04/21 01:20:33;;;;;;;6.77;2.57;;;6.50;99.90;;;;;;5381868;26;20776;-70
2024/04/21 01:22:58;;;;;;;4.77;1.60;;;6.50;99.90;;;;;;5382093;26;20505;-69
2024/04/21 01:25:25;;;;;;;2.23;1.00;;;6.50;99.90;;;;;;5381758;26;20997;-70
2024/04/21 01:27:51;;;;;;;2.40;1.00;;;6.40;99.90;;;;;;5382241;26;20259;-69
2024/04/21 01:30:16;;;;;;;1.10;0.80;;;6.40;99.90;;;;;;5382058;26;20467;-69
2024/04/21 01:32:42;;;;;;;7.80;1.07;;;6.30;99.90;;;;;;5368333;26;20221;-69
2024/04/21 01:35:08;;;;;;;4.27;1.30;;;6.30;99.90;;;;;;5374941;26;20591;-70
2024/04/21 01:37:35;;;;;;;3.20;1.00;;;6.30;99.90;;;;;;5381517;26;20328;-69
2024/04/21 01:40:00;;;;;;;4.33;1.10;;;6.20;99.90;;;;;;5381695;26;20214;-70
2024/04/21 01:42:26;;;;;;;12.53;1.30;;;6.20;99.90;;;;;;5350298;26;20494;-70
2024/04/21 01:44:51;;;;;;;8.23;1.43;;;6.20;99.90;;;;;;5381907;26;20205;-69
2024/04/21 01:47:17;;;;;;;10.40;2.30;;;6.10;99.90;;;;;;5346867;26;936729;-70
2024/04/21 01:49:44;;;;;;;1.57;0.90;;;6.00;99.90;;;;;;5381949;26;20214;-69
2024/04/21 01:52:10;;;;;;;5.77;2.73;;;6.00;99.90;;;;;;5381357;26;20267;-70
2024/04/21 01:54:35;;;;;;;5.47;1.60;;;5.90;99.90;;;;;;5381759;26;20444;-69
2024/04/21 01:57:01;;;;;;;3.10;1.40;;;5.80;99.90;;;;;;5381934;26;20260;-70
2024/04/21 01:59:26;;;;;;;3.93;1.43;;;5.80;99.90;;;;;;5381789;26;20254;-70
2024/04/21 02:01:52;;;;;;;3.33;2.17;;;5.80;99.90;;;;;;5381247;26;20323;-69
2024/04/21 02:04:17;;;;;;;7.60;2.23;;;5.80;99.90;;;;;;5381441;26;20312;-69
2024/04/21 02:06:43;;;;;;;3.13;1.50;;;5.80;99.90;;;;;;5376604;26;20222;-69
2024/04/21 02:09:09;;;;;;;4.40;1.70;;;5.80;99.90;;;;;;5381908;26;20221;-70
2024/04/21 02:11:34;;;;;;;7.07;1.97;;;5.70;99.90;;;;;;5381243;26;20226;-70
2024/04/21 02:14:00;;;;;;;2.17;1.10;;;5.70;99.90;;;;;;5381632;26;20257;-70
2024/04/21 02:16:25;;;;;;;3.37;1.40;;;5.70;99.90;;;;;;5381676;26;20272;-70
2024/04/21 02:18:51;;;;;;;4.53;1.77;;;5.70;99.90;;;;;;5350852;26;20218;-70
2024/04/21 02:21:16;;;;;;;2.60;1.50;;;5.80;99.90;;;;;;5381014;26;20278;-69
2024/04/21 02:23:46;;;;;;;2.20;1.17;;;5.80;99.90;;;;;;5381327;26;20241;-69
2024/04/21 02:26:11;;;;;;;3.77;1.70;;;5.80;99.90;;;;;;5350649;26;20310;-69
2024/04/21 02:28:37;;;;;;;5.50;1.77;;;5.90;99.90;;;;;;5381239;26;20954;-69
2024/04/21 02:31:03;;;;;;;1.27;0.70;;;5.90;99.90;;;;;;5380933;26;20334;-70
2024/04/21 02:33:29;;;;;;;0.80;0.67;;;5.90;99.90;;;;;;5375420;26;20259;-70
2024/04/21 02:35:54;;;;;;;0.90;0.60;;;5.80;99.90;;;;;;5380886;26;20452;-69
2024/04/21 02:38:20;;;;;;;0.90;0.60;;;5.70;99.90;;;;;;5380189;26;20222;-69
2024/04/21 02:40:45;;;;;;;1.20;0.80;;;5.50;99.90;;;;;;5380656;26;20221;-70
2024/04/21 02:43:11;;;;;;;7.13;1.50;;;5.40;99.90;;;;;;5380966;26;20318;-70
2024/04/21 02:45:36;;;;;;;3.70;1.03;;;5.20;99.90;;;;;;5381100;26;20218;-69
2024/04/21 02:48:02;;;;;;;2.60;0.80;;;5.00;99.90;;;;;;5380928;26;20218;-69
2024/04/21 02:50:28;;;;;;;1.13;0.80;;;4.90;99.90;;;;;;5380541;26;20644;-70
2024/04/21 02:52:53;;;;;;;7.37;1.50;;;4.80;99.90;;;;;;5380428;26;20209;-70
2024/04/21 02:55:20;;;;;;;1.57;0.80;;;4.80;99.90;;;;;;5380882;26;20253;-70
2024/04/21 02:57:46;;;;;;;2.30;0.73;;;4.70;99.90;;;;;;5350023;26;20214;-70
2024/04/21 03:00:12;;;;;;;5.23;1.03;;;4.60;99.90;;;;;;5380823;26;20512;-69
2024/04/21 03:02:37;;;;;;;2.23;0.73;;;4.60;99.90;;;;;;5380298;26;20209;-70
2024/04/21 03:05:03;;;;;;;1.77;0.90;;;4.60;99.90;;;;;;5376805;26;20222;-70
2024/04/21 03:07:29;;;;;;;1.67;1.00;;;4.60;99.90;;;;;;5374734;26;20222;-69
2024/04/21 03:09:54;;;;;;;2.17;0.83;;;4.60;99.90;;;;;;5380636;26;20648;-70
2024/04/21 03:12:20;;;;;;;1.37;0.90;;;4.50;99.90;;;;;;5380211;26;20213;-69
2024/04/21 03:14:45;;;;;;;3.83;1.00;;;4.50;99.90;;;;;;5380647;26;20214;-70
2024/04/21 03:17:11;;;;;;;3.43;0.70;;;4.40;99.90;;;;;;5349727;26;20724;-69
2024/04/21 03:19:36;;;;;;;4.10;1.27;;;4.30;99.90;;;;;;5380563;26;20221;-69
2024/04/21 03:22:02;;;;;;;2.80;0.80;;;4.20;99.90;;;;;;5379294;26;20221;-69
2024/04/21 03:24:28;;;;;;;0.90;0.63;;;4.10;99.90;;;;;;5380584;26;20210;-70
2024/04/21 03:26:54;;;;;;;2.03;1.20;;;4.00;99.90;;;;;;5380371;26;20269;-70
2024/04/21 03:29:19;;;;;;;0.90;0.60;;;3.90;99.90;;;;;;5380534;26;20623;-69
2024/04/21 03:31:45;;;;;;;2.70;1.20;;;3.70;99.90;;;;;;5380018;26;20326;-70
2024/04/21 03:34:11;;;;;;;1.43;0.90;;;3.60;99.90;;;;;;5371349;26;20217;-70
2024/04/21 03:36:36;;;;;;;3.00;0.83;;;3.60;99.90;;;;;;5380162;26;20222;-70
2024/04/21 03:39:02;;;;;;;2.20;0.73;;;3.50;99.90;;;;;;5349391;26;20290;-70
2024/04/21 03:41:28;;;;;;;1.33;0.60;;;3.40;99.90;;;;;;5379649;26;20217;-70
2024/04/21 03:43:54;;;;;;;1.10;0.97;;;3.40;99.90;;;;;;5349153;26;20278;-69
2024/04/21 03:46:20;;;;;;;11.03;1.27;;;3.40;99.90;;;;;;5380127;26;20281;-70
2024/04/21 03:48:45;;;;;;;1.97;0.80;;;3.40;99.90;;;;;;5379933;26;20891;-70
2024/04/21 03:51:11;;;;;;;0.87;0.70;;;3.40;99.90;;;;;;5379508;26;20233;-70
2024/04/21 03:53:36;;;;;;;2.17;1.23;;;3.40;99.90;;;;;;5379931;26;20256;-70
2024/04/21 03:56:02;;;;;;;2.83;1.10;;;3.30;99.90;;;;;;5380002;26;20298;-70
2024/04/21 03:58:28;;;;;;;4.20;1.13;;;3.30;99.90;;;;;;5379843;26;20624;-69
2024/04/21 04:00:53;;;;;;;1.13;0.70;;;3.30;99.90;;;;;;5379287;26;20222;-70
2024/04/21 04:03:19;;;;;;;7.50;1.23;;;3.30;99.90;;;;;;5365639;26;20264;-70
2024/04/21 04:05:46;;;;;;;4.97;1.20;;;3.30;99.90;;;;;;5379106;26;20229;-70
2024/04/21 04:08:12;;;;;;;1.07;0.80;;;3.30;99.90;;;;;;5380018;26;20297;-70
2024/04/21 04:10:43;;;;;;;4.93;0.97;;;3.30;99.90;;;;;;5379464;26;20528;-70
2024/04/21 04:13:09;;;;;;;5.30;1.63;;;3.30;99.90;;;;;;5379646;26;20788;-70
2024/04/21 04:15:35;;;;;;;3.13;1.60;;;3.30;99.90;;;;;;5379289;26;20496;-70
2024/04/21 04:18:01;;;;;;;3.10;1.40;;;3.30;99.90;;;;;;5379883;26;20451;-70
2024/04/21 04:20:26;;;;;;;2.33;1.20;;;3.30;99.90;;;;;;5378820;26;20455;-69
2024/04/21 04:22:52;;;;;;;3.43;1.00;;;3.30;99.90;;;;;;5348425;26;20731;-69
2024/04/21 04:25:17;;;;;;;3.57;0.80;;;3.40;99.90;;;;;;5379429;26;20213;-69
2024/04/21 04:27:43;;;;;;;4.70;1.70;;;3.30;99.90;;;;;;5375981;26;20217;-70
2024/04/21 04:30:09;;;;;;;1.83;1.17;;;3.40;99.90;;;;;;5358475;26;20319;-70
2024/04/21 04:32:34;;;;;;;0.90;0.80;;;3.40;99.90;;;;;;5378875;26;20778;-70
2024/04/21 04:35:00;;;;;;;3.53;0.90;;;3.40;99.90;;;;;;5367081;26;20449;-70
2024/04/21 04:37:26;;;;;;;4.53;0.93;;;3.40;99.90;;;;;;5371599;26;20221;-69
2024/04/21 04:39:51;;;;;;;4.53;0.80;;;3.40;99.90;;;;;;5379198;26;22018;-70
2024/04/21 04:42:17;;;;;;;25.70;2.07;;;3.40;99.90;;;;;;5378155;26;20627;-70
2024/04/21 04:44:42;;;;;;;4.23;1.70;;;3.50;99.90;;;;;;5379201;26;20209;-70
2024/04/21 04:47:08;;;;;;;5.30;2.37;;;3.60;99.90;;;;;;5379111;26;20281;-69
2024/04/21 04:49:33;;;;;;;2.53;1.50;;;3.80;99.90;;;;;;5379061;26;20213;-69
2024/04/21 04:51:59;;;;;;;1.47;0.97;;;3.90;99.90;;;;;;5376672;26;20297;-71
2024/04/21 04:54:24;;;;;;;1.20;1.10;;;4.10;99.90;;;;;;5379030;26;20255;-70
2024/04/21 04:56:53;;;;;;;2.73;1.10;;;4.30;99.90;;;;;;5348090;26;20307;-69
2024/04/21 04:59:19;;;;;;;3.80;1.20;;;4.40;99.90;;;;;;5378795;26;20758;-70
2024/04/21 05:01:45;;;;;;;1.80;1.40;;;4.60;99.90;;;;;;5380623;26;20456;-70
2024/04/21 05:04:10;;;;;;;4.30;1.90;;;4.70;99.90;;;;;;5377273;26;20268;-70
2024/04/21 05:06:37;;;;;;;2.40;1.37;;;4.90;99.90;;;;;;5382247;26;20218;-70
2024/04/21 05:09:06;;;;;;;3.60;2.17;;;5.00;99.90;;;;;;5382528;26;20260;-70
2024/04/21 05:11:32;;;;;;;4.70;1.77;;;5.10;99.90;;;;;;5381850;26;20456;-70
2024/04/21 05:13:57;;;;;;;1.73;0.97;;;5.20;99.90;;;;;;5382172;26;21052;-70
2024/04/21 05:16:24;;;;;;;1.70;1.23;;;5.30;99.90;;;;;;5382175;26;20264;-69
2024/04/21 05:18:49;;;;;;;1.20;1.10;;;5.40;99.90;;;;;;5382060;26;20585;-69
2024/04/21 05:21:15;;;;;;;3.37;1.50;;;5.40;99.90;;;;;;5350892;26;20467;-70
2024/04/21 05:23:40;;;;;;;2.83;1.60;;;5.50;99.90;;;;;;5382137;26;20209;-70
2024/04/21 05:26:06;;;;;;;5.70;1.33;;;5.60;99.90;;;;;;5382064;26;20209;-70
2024/04/21 05:28:31;;;;;;;4.93;1.80;;;5.60;99.90;;;;;;5382092;26;20217;-70
2024/04/21 05:30:57;;;;;;;2.00;1.90;;;5.60;99.90;;;;;;5381702;26;20229;-69
2024/04/21 05:33:22;;;;;;;4.50;1.37;;;5.70;99.90;;;;;;5377714;26;20331;-70
2024/04/21 05:35:48;;;;;;;6.03;2.17;;;5.70;99.90;;;;;;5378323;26;20221;-71
2024/04/21 05:38:13;;;;;;;2.77;1.40;;;5.70;99.90;;;;;;5374834;26;20226;-70
2024/04/21 05:40:39;;;;;;;11.53;2.60;;;5.90;99.90;;;;;;5381405;26;20226;-69
2024/04/21 05:43:04;;;;;;;8.70;2.13;;;6.00;99.90;;;;;;5381858;26;20209;-70
2024/04/21 05:45:30;;;;;;;3.27;1.63;;;6.20;99.90;;;;;;5381959;26;20217;-69
2024/04/21 05:47:56;;;;;;;2.13;1.13;;;6.30;99.90;;;;;;5381810;26;20268;-70
2024/04/21 05:50:21;;;;;;;2.33;1.10;;;6.70;99.90;;;;;;5381622;26;20456;-73
2024/04/21 05:52:47;;;;;;;1.93;1.40;;;7.10;99.90;;;;;;5351374;26;20260;-72
2024/04/21 05:55:12;;;;;;;8.97;1.47;;;7.40;99.90;;;;;;5381925;26;20214;-73
2024/04/21 05:57:38;;;;;;;3.23;1.33;;;7.80;99.90;;;;;;5381978;26;20214;-72
2024/04/21 06:00:04;;;;;;;1.50;1.20;;;8.00;99.90;;;;;;5381798;26;20249;-73
2024/04/21 06:02:29;;;;;;;4.57;1.40;;;8.30;99.90;;;;;;5381606;26;20559;-73
2024/04/21 06:04:55;;;;;;;9.50;2.70;;;8.50;99.90;;;;;;5350766;26;20439;-72
2024/04/21 06:07:21;;;;;;;4.43;1.57;;;8.60;99.90;;;;;;5350338;26;20237;-73
2024/04/21 06:09:46;;;;;;;1.27;1.17;;;8.60;99.90;;;;;;5358443;26;20211;-74
2024/04/21 06:12:12;;;;;;;2.70;1.50;;;8.70;99.90;;;;;;5345211;26;20296;-73
2024/04/21 06:14:38;;;;;;;3.47;1.40;;;8.70;99.90;;;;;;5375855;26;20218;-73
2024/04/21 06:17:03;;;;;;;2.27;1.50;;;8.70;99.90;;;;;;5381577;26;20435;-72
2024/04/21 06:19:29;;;;;;;2.17;1.30;;;8.70;99.90;;;;;;5381569;26;20755;-72
2024/04/21 06:21:55;;;;;;;7.13;2.13;;;8.70;99.90;;;;;;5381124;26;20229;-73
2024/04/21 06:24:21;;;;;;;6.43;1.77;;;8.70;99.90;;;;;;5381535;26;20281;-72
2024/04/21 06:26:47;;;;;;;3.03;1.00;;;8.70;99.90;;;;;;5381417;26;20206;-73
2024/04/21 06:29:13;;;;;;;3.63;1.13;;;8.80;99.90;;;;;;5381341;26;20555;-72
2024/04/21 06:31:42;;;;;;;2.30;1.10;;;8.80;99.90;;;;;;5381266;26;20444;-74
2024/04/21 06:34:09;;;;;;;6.40;4.10;;;9.10;99.90;;;;;;5364999;26;20513;-72
2024/04/21 06:36:35;;;;;;;7.00;4.53;;;9.30;99.90;;;;;;5373289;26;20436;-74
2024/04/21 06:39:01;;;;;;;9.47;2.50;;;9.40;99.90;;;;;;5375074;26;20507;-74
2024/04/21 06:41:26;;;;;;;4.63;1.87;;;9.40;99.90;;;;;;5380733;26;20268;-72
2024/04/21 06:43:52;;;;;;;3.77;2.53;;;9.40;99.90;;;;;;5381026;26;20209;-73
2024/04/21 06:46:17;;;;;;;5.30;1.93;;;9.40;99.90;;;;;;5380957;26;20217;-73
2024/04/21 06:48:43;;;;;;;2.50;1.60;;;9.40;99.90;;;;;;5350342;26;20221;-74
2024/04/21 06:51:08;;;;;;;2.93;2.03;;;9.80;99.90;;;;;;5381200;26;20217;-74
2024/04/21 06:53:34;;;;;;;2.07;1.43;;;10.70;99.90;;;;;;5381482;26;20205;-74
2024/04/21 06:55:59;;;;;;;8.97;1.40;;;11.10;99.90;;;;;;5381784;26;20213;-76
2024/04/21 06:58:25;;;;;;;2.70;1.30;;;11.80;99.90;;;;;;5382320;26;20210;-73
2024/04/21 07:00:50;;;;;;;2.47;1.57;;;13.60;99.90;;;;;;5349347;26;20260;-74
2024/04/21 07:03:16;;;;;;;2.70;1.27;;;15.90;99.90;;;;;;5373718;26;20225;-72
2024/04/21 07:05:41;;;;;;;1.73;1.20;;;17.70;99.90;;;;;;5380598;26;20564;-68
2024/04/21 07:08:07;;;;;;;2.43;1.40;;;18.60;99.90;;;;;;5381161;26;20230;-68
2024/04/21 07:10:33;;;;;;;3.90;1.37;;;19.10;99.90;;;;;;5380205;26;20299;-68
2024/04/21 07:12:58;;;;;;;2.47;1.60;;;18.80;91.60;;;;;;5380713;26;20319;-68
2024/04/21 07:15:24;;;;;;;1.60;1.40;;;18.10;83.40;;;;;;5380760;26;20260;-68
2024/04/21 07:17:49;;;;;;;3.10;1.70;;;17.20;79.20;;;;;;5380657;26;20214;-69
2024/04/21 07:20:15;;;;;;;2.77;1.40;;;16.20;77.40;;;;;;5380429;26;20225;-68
2024/04/21 07:22:41;;;;;;;2.87;1.50;;;15.50;78.60;;;;;;5380072;26;20209;-69
2024/04/21 07:25:09;;;;;;;4.43;2.07;;;14.80;81.90;;;;;;5380034;26;20217;-70
2024/04/21 07:27:34;;;;;;;2.47;1.50;;;14.30;85.20;;;;;;5380443;26;20213;-69
2024/04/21 07:30:00;;;;;;;3.03;1.83;;;13.80;88.80;;;;;;5380414;26;20841;-71
2024/04/21 07:32:25;;;;;;;2.67;2.47;;;13.50;91.00;;;;;;5380072;26;20259;-70
2024/04/21 07:34:51;;;;;;;2.60;1.93;;;13.00;92.30;;;;;;5369061;26;20218;-70
2024/04/21 07:37:16;;;;;;;3.33;2.20;;;12.60;93.90;;;;;;5380168;26;20264;-70
2024/04/21 07:39:42;;;;;;;6.17;2.80;;;12.20;95.90;;;;;;5372208;26;20741;-70
2024/04/21 07:42:07;;;;;;;5.73;2.90;;;12.00;98.90;;;;;;5379465;26;20233;-69
2024/04/21 07:44:33;;;;;;;4.07;2.83;;;11.90;99.90;;;;;;5380268;26;20299;-70
2024/04/21 07:46:58;;;;;;;2.80;2.40;;;11.90;99.90;;;;;;5378814;26;20641;-70
2024/04/21 07:49:24;;;;;;;3.77;2.93;;;12.00;99.90;;;;;;5380138;26;20280;-70
2024/04/21 07:51:49;;;;;;;4.23;2.33;;;12.30;99.90;;;;;;5379358;26;20251;-70
2024/04/21 07:54:15;;;;;;;7.53;2.70;;;12.80;99.90;;;;;;5380045;26;20217;-70
2024/04/21 07:56:40;;;;;;;4.90;2.33;;;13.70;99.90;;;;;;5379942;26;20252;-70
2024/04/21 07:59:06;;;;;;;5.20;2.10;;;14.10;99.90;;;;;;5380002;26;20318;-69
2024/04/21 08:01:31;;;;;;;2.60;2.20;;;14.30;98.90;;;;;;5379640;26;20755;-69
2024/04/21 08:03:57;;;;;;;2.07;1.57;;;14.60;98.10;;;;;;5379782;26;20205;-70
2024/04/21 08:06:22;;;;;;;3.20;2.30;;;14.90;95.80;;;;;;5377941;26;20225;-69
2024/04/21 08:08:48;;;;;;;5.80;3.30;;;14.90;93.20;;;;;;5379841;26;20256;-68
2024/04/21 08:11:14;;;;;;;4.27;2.07;;;14.60;90.10;;;;;;5379213;26;20221;-68
2024/04/21 08:13:39;;;;;;;5.10;1.87;;;14.10;86.10;;;;;;5379663;26;20561;-67
2024/04/21 08:16:05;;;;;;;2.93;1.87;;;13.50;86.00;;;;;;5379837;26;20430;-67
2024/04/21 08:18:31;;;;;;;4.80;1.97;;;12.90;87.60;;;;;;5379750;26;20217;-69
2024/04/21 08:20:56;;;;;;;3.50;2.53;;;12.50;90.60;;;;;;5379072;26;20260;-70
2024/04/21 08:23:22;;;;;;;6.73;3.40;;;12.10;92.20;;;;;;5379401;26;20553;-69
2024/04/21 08:25:47;;;;;;;5.77;2.40;;;11.90;94.60;;;;;;5379464;26;20559;-69
2024/04/21 08:28:13;;;;;;;5.80;2.57;;;11.70;96.80;;;;;;5379485;26;20552;-70
2024/04/21 08:30:39;;;;;;;3.90;2.03;;;11.50;98.40;;;;;;5379110;26;20269;-70
2024/04/21 08:33:05;;;;;;;7.70;2.03;;;11.30;99.50;;;;;;5379463;26;20210;-70
2024/04/21 08:35:30;;;;;;;4.50;1.80;;;11.10;99.90;;;;;;5379656;26;20751;-70
2024/04/21 08:37:57;;;;;;;2.97;2.10;;;11.00;99.90;;;;;;5382875;26;20217;-70
2024/04/21 08:40:23;;;;;;;5.70;1.80;;;10.90;99.90;;;;;;5382637;26;20655;-69
2024/04/21 08:42:50;;;;;;;6.90;1.50;;;10.60;99.90;;;;;;5382684;26;20435;-69
2024/04/21 08:45:20;;;;;;;2.70;1.87;;;10.20;99.90;;;;;;5382638;26;20439;-70
2024/04/21 08:47:46;;;;;;;2.83;1.20;;;10.00;99.90;;;;;;5382612;26;20450;-69
2024/04/21 08:50:13;;;;;;;3.53;1.40;;;9.70;99.90;;;;;;5382538;26;20511;-69
2024/04/21 08:52:39;;;;;;;9.70;2.10;;;9.60;99.90;;;;;;5382538;26;20443;-70
2024/04/21 08:55:06;;;;;;;1.87;1.43;;;9.40;99.90;;;;;;5382602;26;20554;-70
2024/04/21 08:57:33;;;;;;;2.67;1.97;;;9.40;99.90;;;;;;5382669;26;20443;-69
2024/04/21 08:59:59;;;;;;;2.03;1.67;;;9.40;99.90;;;;;;5382522;26;20558;-70
2024/04/21 09:02:28;;;;;;;3.77;2.20;;;9.40;99.90;;;;;;5381985;26;20444;-69
2024/04/21 09:04:55;;;;;;;4.43;2.00;;;9.40;99.90;;;;;;5382421;26;20954;-70
2024/04/21 09:07:23;;;;;;;3.53;2.10;;;9.50;99.90;;;;;;5382348;26;20432;-70
2024/04/21 09:09:49;;;;;;;4.27;2.50;;;9.60;99.90;;;;;;5382674;26;20503;-69
2024/04/21 09:12:14;;;;;;;3.37;2.60;;;9.60;99.90;;;;;;5381878;26;20807;-70
2024/04/21 09:14:49;;;;;;;4.17;3.10;;;9.60;99.90;;;;;;5382225;26;20685;-69
2024/04/21 09:17:15;;;;;;;7.10;3.37;;;9.70;99.90;;;;;;5382425;26;20213;-70
2024/04/21 09:19:40;;;;;;;5.13;3.03;;;9.90;99.90;;;;;;5382510;26;20491;-70
2024/04/21 09:22:06;;;;;;;4.00;2.83;;;10.50;99.90;;;;;;5381753;26;20222;-70
2024/04/21 09:24:32;;;;;;;6.07;3.60;;;12.10;99.90;;;;;;5382235;26;20318;-70
2024/04/21 09:26:57;;;;;;;3.03;2.53;;;13.80;99.90;;;;;;5382389;26;20259;-69
2024/04/21 09:29:23;;;;;;;5.97;3.67;;;14.70;98.40;;;;;;5382181;26;20213;-70
2024/04/21 09:31:49;;;;;;;5.17;2.57;;;14.80;87.70;;;;;;5381835;26;20273;-70
2024/04/21 09:34:14;;;;;;;2.37;2.17;;;14.60;79.10;;;;;;5382079;26;20315;-69
2024/04/21 09:36:40;;;;;;;2.40;1.90;;;14.50;78.40;;;;;;5381962;26;20443;-69
2024/04/21 09:39:06;;;;;;;2.40;2.20;;;14.80;80.20;;;;;;5381979;26;20257;-69
2024/04/21 09:41:38;;;;;;;5.13;1.63;;;15.60;81.70;;;;;;5350682;26;20468;-68
2024/04/21 09:44:05;;;;;;;2.40;2.20;;;15.80;70.60;;;;;;5381828;26;20443;-68
2024/04/21 09:46:34;;;;;;;2.03;1.93;;;16.20;72.10;;;;;;5381545;26;20455;-68
2024/04/21 09:49:02;;;;;;;2.70;2.10;;;16.70;71.00;;;;;;5350963;26;20799;-68
2024/04/21 09:51:30;;;;;;;2.13;1.93;;;17.30;67.60;;;;;;5381367;26;20541;-68
2024/04/21 09:53:57;;;;;;;2.63;1.97;;;18.20;68.80;;;;;;5381681;26;20495;-69
2024/04/21 09:56:32;;;;;;;4.70;1.97;;;18.70;57.60;;;;;;5381743;26;20440;-69
2024/04/21 09:59:00;;;;;;;4.27;2.17;;;18.30;53.20;;;;;;5382097;26;20439;-69
2024/04/21 10:01:33;;;;;;;2.67;2.40;;;17.60;50.40;;;;;;5381159;26;20455;-69
2024/04/21 10:04:01;;;;;;;3.03;2.50;;;17.00;52.10;;;;;;5381591;26;20519;-69
2024/04/21 10:06:29;;;;;;;2.70;2.03;;;17.60;52.90;;;;;;5381676;26;20504;-69
2024/04/21 10:09:00;;;;;;;4.60;2.10;;;17.40;50.00;;;;;;5381675;26;20955;-68
2024/04/21 10:11:25;;;;;;;2.37;2.10;;;17.20;49.90;;;;;;5381303;26;20471;-68
2024/04/21 10:13:52;;;;;;;2.70;1.87;;;17.80;51.40;;;;;;5381578;26;20428;-68
2024/04/21 10:16:18;;;;;;;4.73;2.40;;;20.20;50.60;;;;;;5381358;26;20213;-69
2024/04/21 10:18:44;;;;;;;2.50;2.30;;;22.00;46.40;;;;;;5381461;26;20436;-69
2024/04/21 10:21:10;;;;;;;4.37;2.47;;;24.60;45.00;;;;;;5380925;26;20962;-69
2024/04/21 10:23:35;;;;;;;6.07;5.47;;;25.60;38.80;;;;;;5381187;26;20260;-68
2024/04/21 10:26:03;;;;;;;3.23;2.80;;;24.70;35.10;;;;;;5381290;26;20617;-68
2024/04/21 10:28:29;;;;;;;3.63;3.33;;;23.70;34.20;;;;;;5381157;26;20214;-68
2024/04/21 10:31:04;;;;;;;2.23;2.00;;;23.50;34.70;;;;;;5380740;26;20815;-69
2024/04/21 10:33:30;;;;;;;4.00;3.00;;;25.40;35.90;;;;;;5385907;26;20442;-69
2024/04/21 10:35:55;;;;;;;2.53;2.10;;;28.00;35.90;;;;;;5387946;26;20464;-69
2024/04/21 10:38:21;;;;;;;2.90;2.70;;;28.50;32.00;;;;;;5381321;26;20273;-69
2024/04/21 10:40:48;;;;;;;3.10;2.60;;;29.00;30.70;;;;;;5380599;26;20264;-69
2024/04/21 10:43:15;;;;;;;3.00;2.80;;;28.70;29.40;;;;;;5381085;26;20724;-68
2024/04/21 10:45:42;;;;;;;2.77;2.57;;;28.30;29.00;;;;;;5384669;26;20452;-69
2024/04/21 10:48:09;;;;;;;2.40;2.23;;;30.00;28.80;;;;;;5381153;26;20459;-69
2024/04/21 10:50:37;;;;;;;2.60;2.43;;;30.40;26.50;;;;;;5380683;26;20494;-68
2024/04/21 10:53:04;;;;;;;2.70;2.50;;;29.30;26.10;;;;;;5380956;26;20492;-69
2024/04/21 10:55:31;;;;;;;2.60;2.20;;;27.90;26.30;;;;;;5380798;26;20436;-69
2024/04/21 10:58:02;;;;;;;2.67;2.20;;;26.00;26.10;;;;;;5380373;26;20523;-68
2024/04/21 11:00:28;;;;;;;2.03;1.93;;;25.80;28.70;;;;;;5383684;26;20475;-69
2024/04/21 11:02:54;;;;;;;6.53;2.07;;;25.70;28.00;;;;;;5380788;26;20541;-69
2024/04/21 11:05:27;;;;;;;4.40;2.07;;;26.00;28.10;;;;;;5378828;26;20447;-69
2024/04/21 11:07:52;;;;;;;3.43;2.90;;;26.00;28.20;;;;;;5381053;26;20461;-69
2024/04/21 11:10:19;;;;;;;2.50;2.30;;;26.00;28.60;;;;;;5349882;26;20528;-68
2024/04/21 11:12:48;;;;;;;1.90;1.80;;;27.10;28.80;;;;;;5380391;26;20217;-69
2024/04/21 11:15:13;;;;;;;2.10;1.90;;;29.20;28.30;;;;;;5349413;26;20819;-70
2024/04/21 11:17:39;;;;;;;2.13;1.93;;;32.10;28.30;;;;;;5380731;26;20448;-69
2024/04/21 11:20:05;;;;;;;2.43;1.80;;;35.00;26.50;;;;;;5371621;26;20269;-69
2024/04/21 11:22:31;;;;;;;2.17;1.97;;;37.50;24.20;;;;;;5379967;26;20222;-71
2024/04/21 11:24:56;;;;;;;2.03;1.93;;;39.60;22.00;;;;;;5380542;26;20306;-72
2024/04/21 11:27:22;;;;;;;2.63;2.17;;;39.20;19.50;;;;;;5380774;26;20272;-72
2024/04/21 11:29:49;;;;;;;4.23;2.17;;;36.70;17.60;;;;;;5380419;26;20214;-71
2024/04/21 11:32:15;;;;;;;2.10;1.83;;;33.80;18.00;;;;;;5379918;26;20213;-72
2024/04/21 11:34:40;;;;;;;2.10;1.80;;;31.40;19.30;;;;;;5372834;26;20451;-71
2024/04/21 11:37:16;;;;;;;8.67;7.77;;;29.30;20.40;;;;;;5372525;26;20452;-71
2024/04/21 11:39:42;;;;;;;2.37;2.17;;;27.40;21.70;;;;;;5380394;26;20280;-71
2024/04/21 11:42:08;;;;;;;1.80;1.20;;;25.50;22.10;;;;;;5380200;26;20463;-70
2024/04/21 11:44:35;;;;;;;1.60;1.50;;;25.80;24.70;;;;;;5380273;26;20214;-71
2024/04/21 11:47:01;;;;;;;1.67;1.53;;;26.70;24.70;;;;;;5380185;26;20562;-71
2024/04/21 11:49:27;;;;;;;1.50;1.40;;;29.00;25.40;;;;;;5380276;26;20451;-71
2024/04/21 11:51:52;;;;;;;1.77;1.60;;;32.60;24.70;;;;;;5379687;26;20226;-73
2024/04/21 11:54:18;;;;;;;2.10;1.90;;;36.00;22.30;;;;;;5349045;26;20269;-71
2024/04/21 11:56:43;;;;;;;2.07;1.87;;;37.10;19.30;;;;;;5380054;26;20213;-71
2024/04/21 11:59:09;;;;;;;8.13;1.90;;;35.50;18.50;;;;;;5380063;26;20209;-71
2024/04/21 12:01:34;;;;;;;1.20;1.10;;;33.10;19.10;;;;;;5379642;26;20221;-71
2024/04/21 12:04:00;;;;;;;1.20;1.10;;;30.70;19.60;;;;;;5380168;26;20247;-70
2024/04/21 12:06:25;;;;;;;1.80;1.40;;;29.00;21.20;;;;;;5348920;26;20221;-71
2024/04/21 12:08:51;;;;;;;16.80;15.27;;;29.10;21.90;;;;;;5379869;26;20225;-70
2024/04/21 12:11:17;;;;;;;2.87;2.57;;;30.80;22.10;;;;;;5382279;26;20311;-70
2024/04/21 12:13:42;;;;;;;1.63;1.53;;;30.90;20.60;;;;;;5383647;26;20225;-70
2024/04/21 12:16:08;;;;;;;1.80;1.40;;;30.00;20.60;;;;;;5383156;26;20277;-70
2024/04/21 12:18:34;;;;;;;2.73;1.40;;;29.00;21.30;;;;;;5382731;26;20213;-70
2024/04/21 12:21:00;;;;;;;1.87;1.77;;;28.00;21.90;;;;;;5382559;26;20516;-69
2024/04/21 12:23:25;;;;;;;3.10;2.10;;;27.00;22.60;;;;;;5375081;26;20331;-70
2024/04/21 12:25:51;;;;;;;3.20;2.50;;;26.00;23.10;;;;;;5363330;26;20333;-71
2024/04/21 12:28:16;;;;;;;1.93;1.83;;;24.50;23.80;;;;;;5382954;26;20311;-69
2024/04/21 12:30:42;;;;;;;1.90;1.20;;;23.50;25.00;;;;;;5350929;26;20233;-69
2024/04/21 12:33:07;;;;;;;1.40;1.00;;;24.60;26.60;;;;;;5382937;26;20547;-70
2024/04/21 12:35:33;;;;;;;1.43;1.30;;;27.70;27.10;;;;;;5382871;26;20265;-71
2024/04/21 12:37:58;;;;;;;1.23;1.13;;;30.60;25.50;;;;;;5352106;26;20252;-70
2024/04/21 12:40:24;;;;;;;6.57;4.70;;;31.60;23.00;;;;;;5382720;26;20229;-70
2024/04/21 12:42:50;;;;;;;2.17;1.97;;;30.60;20.50;;;;;;5382965;26;20727;-70
2024/04/21 12:45:15;;;;;;;1.80;1.30;;;28.80;19.70;;;;;;5383187;26;20225;-70